sensor_id;sensor_type;location;lat;lon;timestamp;P1;durP1;ratioP1;P2;durP2;ratioP2
6564;SDS011;3316;44.118;27.258;2023-03-21T00:00:33;36.80;;;14.40;;
6564;SDS011;3316;44.118;27.258;2023-03-21T00:02:59;28.53;;;13.80;;
6564;SDS011;3316;44.118;27.258;2023-03-21T00:05:25;33.27;;;15.97;;
6564;SDS011;3316;44.118;27.258;2023-03-21T00:07:50;30.83;;;14.30;;
6564;SDS011;3316;44.118;27.258;2023-03-21T00:10:16;30.80;;;14.57;;
6564;SDS011;3316;44.118;27.258;2023-03-21T00:12:41;31.77;;;13.73;;
6564;SDS011;3316;44.118;27.258;2023-03-21T00:15:07;30.30;;;14.77;;
6564;SDS011;3316;44.118;27.258;2023-03-21T00:17:35;31.90;;;14.03;;
6564;SDS011;3316;44.118;27.258;2023-03-21T00:20:04;26.93;;;14.47;;
6564;SDS011;3316;44.118;27.258;2023-03-21T00:22:35;33.87;;;13.67;;
6564;SDS011;3316;44.118;27.258;2023-03-21T00:25:01;32.83;;;15.97;;
6564;SDS011;3316;44.118;27.258;2023-03-21T00:27:26;32.30;;;15.07;;
6564;SDS011;3316;44.118;27.258;2023-03-21T00:29:52;28.80;;;12.97;;
6564;SDS011;3316;44.118;27.258;2023-03-21T00:32:18;25.70;;;15.10;;
6564;SDS011;3316;44.118;27.258;2023-03-21T00:34:45;35.67;;;15.47;;
6564;SDS011;3316;44.118;27.258;2023-03-21T00:37:11;25.33;;;12.53;;
6564;SDS011;3316;44.118;27.258;2023-03-21T00:39:38;32.93;;;13.97;;
6564;SDS011;3316;44.118;27.258;2023-03-21T00:42:04;35.80;;;13.83;;
6564;SDS011;3316;44.118;27.258;2023-03-21T00:44:29;30.57;;;13.37;;
6564;SDS011;3316;44.118;27.258;2023-03-21T00:47:01;28.73;;;15.50;;
6564;SDS011;3316;44.118;27.258;2023-03-21T00:49:27;32.47;;;15.70;;
6564;SDS011;3316;44.118;27.258;2023-03-21T00:51:57;30.30;;;13.97;;
6564;SDS011;3316;44.118;27.258;2023-03-21T00:54:23;32.13;;;16.27;;
6564;SDS011;3316;44.118;27.258;2023-03-21T00:56:50;31.10;;;14.60;;
6564;SDS011;3316;44.118;27.258;2023-03-21T00:59:15;34.17;;;15.23;;
6564;SDS011;3316;44.118;27.258;2023-03-21T01:01:41;37.17;;;14.77;;
6564;SDS011;3316;44.118;27.258;2023-03-21T01:04:07;27.00;;;15.63;;
6564;SDS011;3316;44.118;27.258;2023-03-21T01:06:38;28.53;;;15.57;;
6564;SDS011;3316;44.118;27.258;2023-03-21T01:09:06;32.53;;;12.60;;
6564;SDS011;3316;44.118;27.258;2023-03-21T01:11:35;26.57;;;13.13;;
6564;SDS011;3316;44.118;27.258;2023-03-21T01:14:01;29.67;;;12.90;;
6564;SDS011;3316;44.118;27.258;2023-03-21T01:16:26;28.30;;;13.17;;
6564;SDS011;3316;44.118;27.258;2023-03-21T01:18:52;24.30;;;14.60;;
6564;SDS011;3316;44.118;27.258;2023-03-21T01:21:18;26.23;;;13.57;;
6564;SDS011;3316;44.118;27.258;2023-03-21T01:23:43;30.30;;;14.43;;
6564;SDS011;3316;44.118;27.258;2023-03-21T01:26:09;32.00;;;14.60;;
6564;SDS011;3316;44.118;27.258;2023-03-21T01:28:37;24.03;;;13.20;;
6564;SDS011;3316;44.118;27.258;2023-03-21T01:31:04;32.13;;;15.07;;
6564;SDS011;3316;44.118;27.258;2023-03-21T01:33:31;31.57;;;13.73;;
6564;SDS011;3316;44.118;27.258;2023-03-21T01:35:57;32.13;;;14.53;;
6564;SDS011;3316;44.118;27.258;2023-03-21T01:38:23;30.30;;;16.20;;
6564;SDS011;3316;44.118;27.258;2023-03-21T01:40:49;35.43;;;15.83;;
6564;SDS011;3316;44.118;27.258;2023-03-21T01:43:27;30.67;;;13.93;;
6564;SDS011;3316;44.118;27.258;2023-03-21T01:48:50;26.27;;;14.30;;
6564;SDS011;3316;44.118;27.258;2023-03-21T01:51:20;36.53;;;14.90;;
6564;SDS011;3316;44.118;27.258;2023-03-21T01:53:47;31.10;;;14.63;;
6564;SDS011;3316;44.118;27.258;2023-03-21T01:56:22;30.73;;;15.17;;
6564;SDS011;3316;44.118;27.258;2023-03-21T01:58:51;32.57;;;16.57;;
6564;SDS011;3316;44.118;27.258;2023-03-21T02:01:21;28.40;;;15.40;;
6564;SDS011;3316;44.118;27.258;2023-03-21T02:03:47;26.17;;;14.33;;
6564;SDS011;3316;44.118;27.258;2023-03-21T02:06:24;27.23;;;14.00;;
6564;SDS011;3316;44.118;27.258;2023-03-21T02:08:57;28.43;;;14.23;;
6564;SDS011;3316;44.118;27.258;2023-03-21T02:11:25;27.70;;;14.17;;
6564;SDS011;3316;44.118;27.258;2023-03-21T02:13:51;23.97;;;14.63;;
6564;SDS011;3316;44.118;27.258;2023-03-21T02:16:28;35.93;;;15.47;;
6564;SDS011;3316;44.118;27.258;2023-03-21T02:20:00;29.60;;;15.37;;
6564;SDS011;3316;44.118;27.258;2023-03-21T02:27:26;37.53;;;17.97;;
6564;SDS011;3316;44.118;27.258;2023-03-21T02:41:31;33.70;;;17.43;;
6564;SDS011;3316;44.118;27.258;2023-03-21T02:46:45;26.17;;;15.60;;
6564;SDS011;3316;44.118;27.258;2023-03-21T02:51:58;47.27;;;22.30;;
6564;SDS011;3316;44.118;27.258;2023-03-21T02:54:26;33.23;;;19.17;;
6564;SDS011;3316;44.118;27.258;2023-03-21T02:56:54;40.13;;;19.43;;
6564;SDS011;3316;44.118;27.258;2023-03-21T02:59:22;34.50;;;17.97;;
6564;SDS011;3316;44.118;27.258;2023-03-21T03:01:50;30.43;;;16.87;;
6564;SDS011;3316;44.118;27.258;2023-03-21T03:04:21;32.20;;;17.67;;
6564;SDS011;3316;44.118;27.258;2023-03-21T03:12:01;33.63;;;18.83;;
6564;SDS011;3316;44.118;27.258;2023-03-21T03:15:05;32.43;;;18.17;;
6564;SDS011;3316;44.118;27.258;2023-03-21T03:22:56;36.63;;;18.47;;
6564;SDS011;3316;44.118;27.258;2023-03-21T03:25:30;31.53;;;17.97;;
6564;SDS011;3316;44.118;27.258;2023-03-21T03:28:21;35.00;;;18.30;;
6564;SDS011;3316;44.118;27.258;2023-03-21T03:30:52;35.03;;;19.50;;
6564;SDS011;3316;44.118;27.258;2023-03-21T03:33:19;33.83;;;20.53;;
6564;SDS011;3316;44.118;27.258;2023-03-21T03:35:47;38.10;;;21.23;;
6564;SDS011;3316;44.118;27.258;2023-03-21T03:38:14;37.30;;;20.73;;
6564;SDS011;3316;44.118;27.258;2023-03-21T03:40:44;37.17;;;21.57;;
6564;SDS011;3316;44.118;27.258;2023-03-21T03:43:19;41.87;;;20.83;;
6564;SDS011;3316;44.118;27.258;2023-03-21T03:45:55;41.37;;;22.50;;
6564;SDS011;3316;44.118;27.258;2023-03-21T03:48:28;38.97;;;22.17;;
6564;SDS011;3316;44.118;27.258;2023-03-21T03:51:01;41.57;;;22.60;;
6564;SDS011;3316;44.118;27.258;2023-03-21T03:53:38;39.30;;;19.43;;
6564;SDS011;3316;44.118;27.258;2023-03-21T03:56:07;40.73;;;20.10;;
6564;SDS011;3316;44.118;27.258;2023-03-21T03:58:35;40.97;;;20.30;;
6564;SDS011;3316;44.118;27.258;2023-03-21T04:01:06;41.63;;;20.63;;
6564;SDS011;3316;44.118;27.258;2023-03-21T04:03:33;37.47;;;19.83;;
6564;SDS011;3316;44.118;27.258;2023-03-21T04:06:01;42.43;;;20.77;;
6564;SDS011;3316;44.118;27.258;2023-03-21T04:08:28;47.20;;;26.27;;
6564;SDS011;3316;44.118;27.258;2023-03-21T04:10:54;57.67;;;29.90;;
6564;SDS011;3316;44.118;27.258;2023-03-21T04:13:20;43.53;;;22.93;;
6564;SDS011;3316;44.118;27.258;2023-03-21T04:15:45;41.43;;;20.90;;
6564;SDS011;3316;44.118;27.258;2023-03-21T04:18:11;35.30;;;19.53;;
6564;SDS011;3316;44.118;27.258;2023-03-21T04:20:36;37.30;;;19.73;;
6564;SDS011;3316;44.118;27.258;2023-03-21T04:23:02;37.60;;;21.37;;
6564;SDS011;3316;44.118;27.258;2023-03-21T04:25:28;35.00;;;20.80;;
6564;SDS011;3316;44.118;27.258;2023-03-21T04:27:53;40.80;;;21.83;;
6564;SDS011;3316;44.118;27.258;2023-03-21T04:30:20;38.10;;;20.97;;
6564;SDS011;3316;44.118;27.258;2023-03-21T04:32:49;42.13;;;20.17;;
6564;SDS011;3316;44.118;27.258;2023-03-21T04:35:18;44.90;;;22.90;;
6564;SDS011;3316;44.118;27.258;2023-03-21T04:37:44;47.90;;;21.13;;
6564;SDS011;3316;44.118;27.258;2023-03-21T04:40:10;40.87;;;19.00;;
6564;SDS011;3316;44.118;27.258;2023-03-21T04:42:36;36.80;;;20.67;;
6564;SDS011;3316;44.118;27.258;2023-03-21T04:45:02;38.77;;;20.53;;
6564;SDS011;3316;44.118;27.258;2023-03-21T04:47:28;39.67;;;20.30;;
6564;SDS011;3316;44.118;27.258;2023-03-21T04:49:54;45.47;;;21.87;;
6564;SDS011;3316;44.118;27.258;2023-03-21T04:52:21;38.00;;;21.93;;
6564;SDS011;3316;44.118;27.258;2023-03-21T04:54:46;40.33;;;21.07;;
6564;SDS011;3316;44.118;27.258;2023-03-21T04:57:12;45.07;;;21.00;;
6564;SDS011;3316;44.118;27.258;2023-03-21T04:59:37;42.17;;;20.37;;
6564;SDS011;3316;44.118;27.258;2023-03-21T05:02:03;37.77;;;21.17;;
6564;SDS011;3316;44.118;27.258;2023-03-21T05:04:28;45.20;;;21.77;;
6564;SDS011;3316;44.118;27.258;2023-03-21T05:06:55;40.87;;;21.97;;
6564;SDS011;3316;44.118;27.258;2023-03-21T05:09:21;40.93;;;20.47;;
6564;SDS011;3316;44.118;27.258;2023-03-21T05:11:47;40.93;;;19.77;;
6564;SDS011;3316;44.118;27.258;2023-03-21T05:14:15;41.80;;;21.20;;
6564;SDS011;3316;44.118;27.258;2023-03-21T05:16:43;41.27;;;22.57;;
6564;SDS011;3316;44.118;27.258;2023-03-21T05:19:17;40.23;;;20.60;;
6564;SDS011;3316;44.118;27.258;2023-03-21T05:21:44;38.67;;;19.37;;
6564;SDS011;3316;44.118;27.258;2023-03-21T05:24:14;35.67;;;18.03;;
6564;SDS011;3316;44.118;27.258;2023-03-21T05:26:41;36.43;;;19.33;;
6564;SDS011;3316;44.118;27.258;2023-03-21T05:29:09;38.27;;;18.53;;
6564;SDS011;3316;44.118;27.258;2023-03-21T05:31:35;34.03;;;18.87;;
6564;SDS011;3316;44.118;27.258;2023-03-21T05:34:01;35.43;;;19.17;;
6564;SDS011;3316;44.118;27.258;2023-03-21T05:36:27;36.53;;;18.50;;
6564;SDS011;3316;44.118;27.258;2023-03-21T05:38:53;33.33;;;18.30;;
6564;SDS011;3316;44.118;27.258;2023-03-21T05:41:19;34.50;;;19.17;;
6564;SDS011;3316;44.118;27.258;2023-03-21T05:43:45;30.13;;;18.13;;
6564;SDS011;3316;44.118;27.258;2023-03-21T05:46:11;35.27;;;19.13;;
6564;SDS011;3316;44.118;27.258;2023-03-21T05:48:37;33.83;;;17.60;;
6564;SDS011;3316;44.118;27.258;2023-03-21T05:51:03;38.73;;;20.40;;
6564;SDS011;3316;44.118;27.258;2023-03-21T05:53:29;38.40;;;21.57;;
6564;SDS011;3316;44.118;27.258;2023-03-21T05:55:55;46.50;;;25.40;;
6564;SDS011;3316;44.118;27.258;2023-03-21T05:58:20;39.77;;;20.90;;
6564;SDS011;3316;44.118;27.258;2023-03-21T06:00:46;37.73;;;21.87;;
6564;SDS011;3316;44.118;27.258;2023-03-21T06:03:11;44.00;;;21.43;;
6564;SDS011;3316;44.118;27.258;2023-03-21T06:05:37;32.53;;;19.27;;
6564;SDS011;3316;44.118;27.258;2023-03-21T06:08:02;29.60;;;16.50;;
6564;SDS011;3316;44.118;27.258;2023-03-21T06:10:28;28.00;;;16.23;;
6564;SDS011;3316;44.118;27.258;2023-03-21T06:12:53;32.90;;;16.63;;
6564;SDS011;3316;44.118;27.258;2023-03-21T06:15:19;30.80;;;17.30;;
6564;SDS011;3316;44.118;27.258;2023-03-21T06:17:44;34.40;;;17.37;;
6564;SDS011;3316;44.118;27.258;2023-03-21T06:20:10;26.73;;;15.70;;
6564;SDS011;3316;44.118;27.258;2023-03-21T06:22:36;30.17;;;17.57;;
6564;SDS011;3316;44.118;27.258;2023-03-21T06:25:02;27.47;;;15.23;;
6564;SDS011;3316;44.118;27.258;2023-03-21T06:27:28;25.00;;;16.63;;
6564;SDS011;3316;44.118;27.258;2023-03-21T06:29:54;26.27;;;16.87;;
6564;SDS011;3316;44.118;27.258;2023-03-21T06:32:22;31.70;;;20.80;;
6564;SDS011;3316;44.118;27.258;2023-03-21T06:34:47;25.37;;;16.13;;
6564;SDS011;3316;44.118;27.258;2023-03-21T06:37:13;38.53;;;23.77;;
6564;SDS011;3316;44.118;27.258;2023-03-21T06:39:39;23.27;;;15.10;;
6564;SDS011;3316;44.118;27.258;2023-03-21T06:42:05;29.40;;;19.50;;
6564;SDS011;3316;44.118;27.258;2023-03-21T06:44:30;32.53;;;20.87;;
6564;SDS011;3316;44.118;27.258;2023-03-21T06:46:55;39.67;;;22.90;;
6564;SDS011;3316;44.118;27.258;2023-03-21T06:49:21;25.60;;;17.73;;
6564;SDS011;3316;44.118;27.258;2023-03-21T06:51:46;25.37;;;16.30;;
6564;SDS011;3316;44.118;27.258;2023-03-21T06:54:12;31.83;;;18.10;;
6564;SDS011;3316;44.118;27.258;2023-03-21T06:56:39;34.37;;;19.93;;
6564;SDS011;3316;44.118;27.258;2023-03-21T06:59:05;31.47;;;18.10;;
6564;SDS011;3316;44.118;27.258;2023-03-21T07:01:32;28.97;;;16.53;;
6564;SDS011;3316;44.118;27.258;2023-03-21T07:03:58;40.63;;;22.30;;
6564;SDS011;3316;44.118;27.258;2023-03-21T07:06:23;29.63;;;19.07;;
6564;SDS011;3316;44.118;27.258;2023-03-21T07:08:53;30.43;;;17.90;;
6564;SDS011;3316;44.118;27.258;2023-03-21T07:11:20;28.77;;;16.30;;
6564;SDS011;3316;44.118;27.258;2023-03-21T07:13:46;27.67;;;16.37;;
6564;SDS011;3316;44.118;27.258;2023-03-21T07:16:13;35.33;;;20.73;;
6564;SDS011;3316;44.118;27.258;2023-03-21T07:18:43;34.60;;;21.07;;
6564;SDS011;3316;44.118;27.258;2023-03-21T07:21:08;35.50;;;19.87;;
6564;SDS011;3316;44.118;27.258;2023-03-21T07:23:34;35.17;;;20.80;;
6564;SDS011;3316;44.118;27.258;2023-03-21T07:26:02;30.53;;;17.63;;
6564;SDS011;3316;44.118;27.258;2023-03-21T07:28:28;31.80;;;19.03;;
6564;SDS011;3316;44.118;27.258;2023-03-21T07:30:56;29.83;;;18.23;;
6564;SDS011;3316;44.118;27.258;2023-03-21T07:33:24;34.33;;;20.27;;
6564;SDS011;3316;44.118;27.258;2023-03-21T07:35:50;24.23;;;14.83;;
6564;SDS011;3316;44.118;27.258;2023-03-21T07:38:17;21.73;;;13.93;;
6564;SDS011;3316;44.118;27.258;2023-03-21T07:40:44;25.73;;;14.97;;
6564;SDS011;3316;44.118;27.258;2023-03-21T07:43:12;20.00;;;13.40;;
6564;SDS011;3316;44.118;27.258;2023-03-21T07:45:38;21.97;;;12.57;;
6564;SDS011;3316;44.118;27.258;2023-03-21T07:48:04;19.67;;;11.80;;
6564;SDS011;3316;44.118;27.258;2023-03-21T07:50:30;17.00;;;12.23;;
6564;SDS011;3316;44.118;27.258;2023-03-21T07:52:55;15.43;;;11.47;;
6564;SDS011;3316;44.118;27.258;2023-03-21T07:55:21;16.77;;;11.73;;
6564;SDS011;3316;44.118;27.258;2023-03-21T07:57:50;15.30;;;9.70;;
6564;SDS011;3316;44.118;27.258;2023-03-21T08:00:18;15.10;;;9.73;;
6564;SDS011;3316;44.118;27.258;2023-03-21T08:02:51;16.20;;;12.37;;
6564;SDS011;3316;44.118;27.258;2023-03-21T08:05:28;16.47;;;10.73;;
6564;SDS011;3316;44.118;27.258;2023-03-21T08:07:58;18.67;;;11.63;;
6564;SDS011;3316;44.118;27.258;2023-03-21T08:10:23;18.43;;;12.67;;
6564;SDS011;3316;44.118;27.258;2023-03-21T08:12:49;14.93;;;10.63;;
6564;SDS011;3316;44.118;27.258;2023-03-21T08:15:14;16.03;;;11.03;;
6564;SDS011;3316;44.118;27.258;2023-03-21T08:17:40;13.90;;;10.90;;
6564;SDS011;3316;44.118;27.258;2023-03-21T08:20:10;13.23;;;10.43;;
6564;SDS011;3316;44.118;27.258;2023-03-21T08:22:37;14.37;;;10.97;;
6564;SDS011;3316;44.118;27.258;2023-03-21T08:25:03;16.70;;;10.67;;
6564;SDS011;3316;44.118;27.258;2023-03-21T08:27:31;14.67;;;9.80;;
6564;SDS011;3316;44.118;27.258;2023-03-21T08:29:57;13.33;;;9.53;;
6564;SDS011;3316;44.118;27.258;2023-03-21T08:32:23;15.63;;;11.10;;
6564;SDS011;3316;44.118;27.258;2023-03-21T08:34:54;19.27;;;12.73;;
6564;SDS011;3316;44.118;27.258;2023-03-21T08:37:22;15.73;;;10.83;;
6564;SDS011;3316;44.118;27.258;2023-03-21T08:39:48;15.87;;;11.10;;
6564;SDS011;3316;44.118;27.258;2023-03-21T08:42:13;14.40;;;11.10;;
6564;SDS011;3316;44.118;27.258;2023-03-21T08:44:39;27.73;;;18.20;;
6564;SDS011;3316;44.118;27.258;2023-03-21T08:47:05;16.30;;;10.80;;
6564;SDS011;3316;44.118;27.258;2023-03-21T08:49:31;18.03;;;13.07;;
6564;SDS011;3316;44.118;27.258;2023-03-21T08:51:56;16.47;;;11.77;;
6564;SDS011;3316;44.118;27.258;2023-03-21T08:54:23;16.73;;;10.70;;
6564;SDS011;3316;44.118;27.258;2023-03-21T08:56:48;17.10;;;11.40;;
6564;SDS011;3316;44.118;27.258;2023-03-21T08:59:14;14.10;;;11.33;;
6564;SDS011;3316;44.118;27.258;2023-03-21T09:01:40;20.10;;;11.73;;
6564;SDS011;3316;44.118;27.258;2023-03-21T09:04:05;21.37;;;12.43;;
6564;SDS011;3316;44.118;27.258;2023-03-21T09:06:34;14.97;;;10.30;;
6564;SDS011;3316;44.118;27.258;2023-03-21T09:09:09;14.57;;;10.30;;
6564;SDS011;3316;44.118;27.258;2023-03-21T09:11:36;23.57;;;12.33;;
6564;SDS011;3316;44.118;27.258;2023-03-21T09:14:02;15.83;;;10.63;;
6564;SDS011;3316;44.118;27.258;2023-03-21T09:16:27;15.70;;;11.10;;
6564;SDS011;3316;44.118;27.258;2023-03-21T09:18:52;22.33;;;13.67;;
6564;SDS011;3316;44.118;27.258;2023-03-21T09:21:21;16.93;;;11.50;;
6564;SDS011;3316;44.118;27.258;2023-03-21T09:23:48;18.33;;;11.33;;
6564;SDS011;3316;44.118;27.258;2023-03-21T09:26:17;17.67;;;10.37;;
6564;SDS011;3316;44.118;27.258;2023-03-21T09:28:43;13.50;;;9.97;;
6564;SDS011;3316;44.118;27.258;2023-03-21T09:31:10;22.80;;;12.87;;
6564;SDS011;3316;44.118;27.258;2023-03-21T09:33:37;18.87;;;10.73;;
6564;SDS011;3316;44.118;27.258;2023-03-21T09:36:04;15.57;;;10.77;;
6564;SDS011;3316;44.118;27.258;2023-03-21T09:38:35;17.23;;;11.30;;
6564;SDS011;3316;44.118;27.258;2023-03-21T09:47:43;15.87;;;9.63;;
6564;SDS011;3316;44.118;27.258;2023-03-21T09:49:46;17.47;;;10.97;;
6564;SDS011;3316;44.118;27.258;2023-03-21T09:55:08;17.07;;;11.33;;
6564;SDS011;3316;44.118;27.258;2023-03-21T09:57:44;20.03;;;11.60;;
6564;SDS011;3316;44.118;27.258;2023-03-21T10:00:18;19.27;;;11.77;;
6564;SDS011;3316;44.118;27.258;2023-03-21T10:02:50;17.37;;;10.73;;
6564;SDS011;3316;44.118;27.258;2023-03-21T10:07:57;18.33;;;11.83;;
6564;SDS011;3316;44.118;27.258;2023-03-21T10:10:25;17.20;;;10.63;;
6564;SDS011;3316;44.118;27.258;2023-03-21T10:12:54;16.37;;;9.90;;
6564;SDS011;3316;44.118;27.258;2023-03-21T10:15:21;12.57;;;10.10;;
6564;SDS011;3316;44.118;27.258;2023-03-21T10:17:50;14.90;;;10.10;;
6564;SDS011;3316;44.118;27.258;2023-03-21T10:20:24;15.33;;;9.83;;
6564;SDS011;3316;44.118;27.258;2023-03-21T10:22:56;14.67;;;10.60;;
6564;SDS011;3316;44.118;27.258;2023-03-21T10:25:47;18.53;;;11.23;;
6564;SDS011;3316;44.118;27.258;2023-03-21T10:28:16;14.93;;;9.80;;
6564;SDS011;3316;44.118;27.258;2023-03-21T10:30:46;11.67;;;9.53;;
6564;SDS011;3316;44.118;27.258;2023-03-21T10:33:25;14.20;;;9.40;;
6564;SDS011;3316;44.118;27.258;2023-03-21T10:35:55;15.60;;;10.53;;
6564;SDS011;3316;44.118;27.258;2023-03-21T10:38:25;16.30;;;9.77;;
6564;SDS011;3316;44.118;27.258;2023-03-21T10:40:51;14.53;;;9.53;;
6564;SDS011;3316;44.118;27.258;2023-03-21T10:45:54;14.13;;;9.20;;
6564;SDS011;3316;44.118;27.258;2023-03-21T10:48:20;12.10;;;9.13;;
6564;SDS011;3316;44.118;27.258;2023-03-21T10:50:50;13.47;;;8.90;;
6564;SDS011;3316;44.118;27.258;2023-03-21T10:53:28;16.97;;;9.73;;
6564;SDS011;3316;44.118;27.258;2023-03-21T10:55:58;17.33;;;9.60;;
6564;SDS011;3316;44.118;27.258;2023-03-21T10:58:28;15.47;;;9.30;;
6564;SDS011;3316;44.118;27.258;2023-03-21T11:01:28;12.37;;;8.88;;
6564;SDS011;3316;44.118;27.258;2023-03-21T11:03:59;13.93;;;9.43;;
6564;SDS011;3316;44.118;27.258;2023-03-21T11:06:31;15.63;;;8.93;;
6564;SDS011;3316;44.118;27.258;2023-03-21T11:09:08;14.63;;;9.30;;
6564;SDS011;3316;44.118;27.258;2023-03-21T11:11:40;20.17;;;10.10;;
6564;SDS011;3316;44.118;27.258;2023-03-21T11:14:24;15.80;;;10.37;;
6564;SDS011;3316;44.118;27.258;2023-03-21T11:16:55;24.83;;;9.80;;
6564;SDS011;3316;44.118;27.258;2023-03-21T11:19:30;17.37;;;9.90;;
6564;SDS011;3316;44.118;27.258;2023-03-21T11:21:57;16.23;;;10.43;;
6564;SDS011;3316;44.118;27.258;2023-03-21T11:24:29;14.53;;;9.70;;
6564;SDS011;3316;44.118;27.258;2023-03-21T11:26:57;21.63;;;9.73;;
6564;SDS011;3316;44.118;27.258;2023-03-21T11:29:28;13.93;;;9.37;;
6564;SDS011;3316;44.118;27.258;2023-03-21T11:32:20;17.10;;;9.33;;
6564;SDS011;3316;44.118;27.258;2023-03-21T11:34:56;16.63;;;9.17;;
6564;SDS011;3316;44.118;27.258;2023-03-21T11:39:55;16.17;;;8.93;;
6564;SDS011;3316;44.118;27.258;2023-03-21T11:42:31;19.93;;;9.07;;
6564;SDS011;3316;44.118;27.258;2023-03-21T11:45:14;16.00;;;9.80;;
6564;SDS011;3316;44.118;27.258;2023-03-21T11:47:48;17.57;;;8.63;;
6564;SDS011;3316;44.118;27.258;2023-03-21T11:52:48;17.33;;;8.60;;
6564;SDS011;3316;44.118;27.258;2023-03-21T11:55:30;12.68;;;8.50;;
6564;SDS011;3316;44.118;27.258;2023-03-21T11:58:22;16.90;;;7.93;;
6564;SDS011;3316;44.118;27.258;2023-03-21T12:03:44;17.60;;;8.80;;
6564;SDS011;3316;44.118;27.258;2023-03-21T12:06:18;14.90;;;8.35;;
6564;SDS011;3316;44.118;27.258;2023-03-21T12:08:58;15.87;;;9.30;;
6564;SDS011;3316;44.118;27.258;2023-03-21T12:14:38;19.27;;;9.00;;
6564;SDS011;3316;44.118;27.258;2023-03-21T12:28:43;13.90;;;8.13;;
6564;SDS011;3316;44.118;27.258;2023-03-21T12:39:45;14.70;;;7.53;;
6564;SDS011;3316;44.118;27.258;2023-03-21T12:45:10;12.03;;;7.77;;
6564;SDS011;3316;44.118;27.258;2023-03-21T12:47:41;12.73;;;7.77;;
6564;SDS011;3316;44.118;27.258;2023-03-21T12:52:57;11.23;;;7.97;;
6564;SDS011;3316;44.118;27.258;2023-03-21T12:55:29;12.23;;;7.33;;
6564;SDS011;3316;44.118;27.258;2023-03-21T12:58:19;10.57;;;8.10;;
6564;SDS011;3316;44.118;27.258;2023-03-21T13:00:47;11.83;;;7.80;;
6564;SDS011;3316;44.118;27.258;2023-03-21T13:03:18;16.30;;;7.87;;
6564;SDS011;3316;44.118;27.258;2023-03-21T13:11:06;11.90;;;7.87;;
6564;SDS011;3316;44.118;27.258;2023-03-21T13:13:46;16.87;;;8.50;;
6564;SDS011;3316;44.118;27.258;2023-03-21T13:19:07;10.07;;;8.17;;
6564;SDS011;3316;44.118;27.258;2023-03-21T13:24:47;9.40;;;7.63;;
6564;SDS011;3316;44.118;27.258;2023-03-21T13:29:53;11.97;;;7.90;;
6564;SDS011;3316;44.118;27.258;2023-03-21T13:32:34;12.70;;;8.30;;
6564;SDS011;3316;44.118;27.258;2023-03-21T13:37:34;12.60;;;8.47;;
6564;SDS011;3316;44.118;27.258;2023-03-21T13:40:05;12.87;;;8.07;;
6564;SDS011;3316;44.118;27.258;2023-03-21T13:42:45;13.93;;;8.67;;
6564;SDS011;3316;44.118;27.258;2023-03-21T13:45:44;11.50;;;8.73;;
6564;SDS011;3316;44.118;27.258;2023-03-21T13:51:04;11.37;;;8.00;;
6564;SDS011;3316;44.118;27.258;2023-03-21T13:53:37;12.60;;;8.83;;
6564;SDS011;3316;44.118;27.258;2023-03-21T13:58:40;18.47;;;10.50;;
6564;SDS011;3316;44.118;27.258;2023-03-21T14:04:21;15.70;;;9.50;;
6564;SDS011;3316;44.118;27.258;2023-03-21T14:06:55;19.53;;;10.33;;
6564;SDS011;3316;44.118;27.258;2023-03-21T14:09:30;16.00;;;10.67;;
6564;SDS011;3316;44.118;27.258;2023-03-21T14:12:02;19.93;;;11.50;;
6564;SDS011;3316;44.118;27.258;2023-03-21T14:14:32;19.23;;;11.20;;
6564;SDS011;3316;44.118;27.258;2023-03-21T14:17:12;20.67;;;11.63;;
6564;SDS011;3316;44.118;27.258;2023-03-21T14:19:45;19.37;;;11.17;;
6564;SDS011;3316;44.118;27.258;2023-03-21T14:22:12;23.60;;;13.73;;
6564;SDS011;3316;44.118;27.258;2023-03-21T14:24:37;24.83;;;13.53;;
6564;SDS011;3316;44.118;27.258;2023-03-21T14:27:05;18.87;;;10.33;;
6564;SDS011;3316;44.118;27.258;2023-03-21T14:29:34;21.80;;;11.67;;
6564;SDS011;3316;44.118;27.258;2023-03-21T14:32:00;22.17;;;12.03;;
6564;SDS011;3316;44.118;27.258;2023-03-21T14:34:27;16.93;;;11.83;;
6564;SDS011;3316;44.118;27.258;2023-03-21T14:36:56;20.20;;;13.37;;
6564;SDS011;3316;44.118;27.258;2023-03-21T14:39:22;22.33;;;13.83;;
6564;SDS011;3316;44.118;27.258;2023-03-21T14:42:10;25.90;;;15.77;;
6564;SDS011;3316;44.118;27.258;2023-03-21T14:44:41;26.30;;;13.83;;
6564;SDS011;3316;44.118;27.258;2023-03-21T14:47:19;22.67;;;13.67;;
6564;SDS011;3316;44.118;27.258;2023-03-21T14:49:49;24.40;;;12.10;;
6564;SDS011;3316;44.118;27.258;2023-03-21T14:52:17;21.60;;;13.33;;
6564;SDS011;3316;44.118;27.258;2023-03-21T14:54:46;18.63;;;11.27;;
6564;SDS011;3316;44.118;27.258;2023-03-21T14:57:14;20.30;;;11.73;;
6564;SDS011;3316;44.118;27.258;2023-03-21T14:59:46;20.83;;;12.17;;
6564;SDS011;3316;44.118;27.258;2023-03-21T15:02:17;20.93;;;11.50;;
6564;SDS011;3316;44.118;27.258;2023-03-21T15:04:48;23.63;;;15.70;;
6564;SDS011;3316;44.118;27.258;2023-03-21T15:07:26;27.30;;;16.40;;
6564;SDS011;3316;44.118;27.258;2023-03-21T15:09:54;26.08;;;16.85;;
6564;SDS011;3316;44.118;27.258;2023-03-21T15:12:21;29.20;;;15.47;;
6564;SDS011;3316;44.118;27.258;2023-03-21T15:14:47;33.43;;;17.80;;
6564;SDS011;3316;44.118;27.258;2023-03-21T15:17:13;25.57;;;16.93;;
6564;SDS011;3316;44.118;27.258;2023-03-21T15:19:39;39.63;;;23.33;;
6564;SDS011;3316;44.118;27.258;2023-03-21T15:22:09;39.83;;;25.93;;
6564;SDS011;3316;44.118;27.258;2023-03-21T15:25:02;48.10;;;28.70;;
6564;SDS011;3316;44.118;27.258;2023-03-21T15:27:31;39.83;;;23.90;;
6564;SDS011;3316;44.118;27.258;2023-03-21T15:29:59;27.00;;;14.03;;
6564;SDS011;3316;44.118;27.258;2023-03-21T15:32:26;29.27;;;16.17;;
6564;SDS011;3316;44.118;27.258;2023-03-21T15:34:53;33.13;;;16.27;;
6564;SDS011;3316;44.118;27.258;2023-03-21T15:37:26;30.27;;;16.43;;
6564;SDS011;3316;44.118;27.258;2023-03-21T15:40:04;29.10;;;16.10;;
6564;SDS011;3316;44.118;27.258;2023-03-21T15:42:41;24.10;;;14.83;;
6564;SDS011;3316;44.118;27.258;2023-03-21T15:47:52;33.83;;;16.30;;
6564;SDS011;3316;44.118;27.258;2023-03-21T15:52:57;28.23;;;16.23;;
6564;SDS011;3316;44.118;27.258;2023-03-21T15:55:36;29.90;;;14.97;;
6564;SDS011;3316;44.118;27.258;2023-03-21T15:58:16;28.87;;;16.37;;
6564;SDS011;3316;44.118;27.258;2023-03-21T16:00:53;32.70;;;17.70;;
6564;SDS011;3316;44.118;27.258;2023-03-21T16:03:25;34.10;;;19.87;;
6564;SDS011;3316;44.118;27.258;2023-03-21T16:06:15;37.20;;;19.60;;
6564;SDS011;3316;44.118;27.258;2023-03-21T16:08:48;28.43;;;17.00;;
6564;SDS011;3316;44.118;27.258;2023-03-21T16:11:15;36.27;;;18.20;;
6564;SDS011;3316;44.118;27.258;2023-03-21T16:13:43;37.47;;;20.77;;
6564;SDS011;3316;44.118;27.258;2023-03-21T16:16:12;43.37;;;21.10;;
6564;SDS011;3316;44.118;27.258;2023-03-21T16:18:41;32.23;;;18.30;;
6564;SDS011;3316;44.118;27.258;2023-03-21T16:21:08;33.40;;;17.03;;
6564;SDS011;3316;44.118;27.258;2023-03-21T16:23:37;32.57;;;17.70;;
6564;SDS011;3316;44.118;27.258;2023-03-21T16:26:03;28.50;;;16.90;;
6564;SDS011;3316;44.118;27.258;2023-03-21T16:28:29;36.03;;;18.77;;
6564;SDS011;3316;44.118;27.258;2023-03-21T16:30:55;29.50;;;18.67;;
6564;SDS011;3316;44.118;27.258;2023-03-21T16:33:20;37.43;;;18.43;;
6564;SDS011;3316;44.118;27.258;2023-03-21T16:35:46;32.43;;;18.43;;
6564;SDS011;3316;44.118;27.258;2023-03-21T16:38:12;31.80;;;17.70;;
6564;SDS011;3316;44.118;27.258;2023-03-21T16:40:38;29.97;;;18.17;;
6564;SDS011;3316;44.118;27.258;2023-03-21T16:43:05;37.93;;;20.37;;
6564;SDS011;3316;44.118;27.258;2023-03-21T16:45:31;29.73;;;18.73;;